createdAt,value
2018-12-15T00:00:27.681Z,13.48
2018-12-15T00:01:00.276Z,13.50
2018-12-15T00:01:32.864Z,15.25
2018-12-15T00:02:05.436Z,12.63
2018-12-15T00:02:38.092Z,15.85
2018-12-15T00:03:10.710Z,14.50
2018-12-15T00:03:43.286Z,13.38
2018-12-15T00:04:15.874Z,15.13
2018-12-15T00:04:48.609Z,10.35
2018-12-15T00:05:21.194Z,10.93
2018-12-15T00:05:53.778Z,11.65
2018-12-15T00:06:26.395Z,13.30
2018-12-15T00:06:59.026Z,14.00
2018-12-15T00:07:31.631Z,12.82
2018-12-15T00:08:04.237Z,12.58
2018-12-15T00:08:36.826Z,12.13
2018-12-15T00:09:09.439Z,14.78
2018-12-15T00:09:42.026Z,14.73
2018-12-15T00:10:14.620Z,14.05
2018-12-15T00:10:47.258Z,14.90
2018-12-15T00:11:20.344Z,14.90
2018-12-15T00:11:52.982Z,14.60
2018-12-15T00:12:25.566Z,15.85
2018-12-15T00:12:58.210Z,15.72
2018-12-15T00:13:30.939Z,18.42
2018-12-15T00:14:03.545Z,16.40
2018-12-15T00:14:36.132Z,15.10
2018-12-15T00:15:09.220Z,15.00
2018-12-15T00:15:41.855Z,20.32
2018-12-15T00:16:14.477Z,16.32
2018-12-15T00:16:47.093Z,15.45
2018-12-15T00:17:19.739Z,17.35
2018-12-15T00:17:52.335Z,14.73
2018-12-15T00:18:24.973Z,16.57
2018-12-15T00:18:57.579Z,16.07
2018-12-15T00:19:30.183Z,16.12
2018-12-15T00:20:03.056Z,15.58
2018-12-15T00:20:35.670Z,15.60
2018-12-15T00:21:08.262Z,17.07
2018-12-15T00:21:40.858Z,15.08
2018-12-15T00:22:13.470Z,17.62
2018-12-15T00:22:46.081Z,15.88
2018-12-15T00:23:18.697Z,18.12
2018-12-15T00:23:51.273Z,14.58
2018-12-15T00:24:24.124Z,15.03
2018-12-15T00:24:56.752Z,19.23
2018-12-15T00:25:29.370Z,15.58
2018-12-15T00:26:01.966Z,16.75
2018-12-15T00:26:34.910Z,19.60
2018-12-15T00:27:07.523Z,14.00
2018-12-15T00:27:40.110Z,17.25
2018-12-15T00:28:12.722Z,17.98
2018-12-15T00:28:45.303Z,13.70
2018-12-15T00:29:17.898Z,18.70
2018-12-15T00:29:50.489Z,17.77
2018-12-15T00:30:23.127Z,18.23
2018-12-15T00:30:55.738Z,15.23
2018-12-15T00:31:28.355Z,17.12
2018-12-15T00:32:00.962Z,15.93
2018-12-15T00:32:33.558Z,19.42
2018-12-15T00:33:06.161Z,14.15
2018-12-15T00:33:38.814Z,15.25
2018-12-15T00:34:11.406Z,18.52
2018-12-15T00:34:44.118Z,14.70
2018-12-15T00:35:16.731Z,16.30
2018-12-15T00:35:49.312Z,16.30
2018-12-15T00:36:21.957Z,14.93
2018-12-15T00:36:54.547Z,16.32
2018-12-15T00:37:27.264Z,12.13
2018-12-15T00:37:59.850Z,15.38
2018-12-15T00:38:32.445Z,18.07
2018-12-15T00:39:06.425Z,15.15
2018-12-15T00:39:39.011Z,15.38
2018-12-15T00:40:11.630Z,15.32
2018-12-15T00:40:44.213Z,16.12
2018-12-15T00:41:16.810Z,16.80
2018-12-15T00:41:49.434Z,15.75
2018-12-15T00:42:32.270Z,14.75
2018-12-15T00:43:05.116Z,18.50
2018-12-15T00:43:37.707Z,15.32
2018-12-15T00:44:10.667Z,15.83
2018-12-15T00:44:43.238Z,19.92
2018-12-15T00:45:16.249Z,13.30
2018-12-15T00:45:48.829Z,15.28
2018-12-15T00:46:21.455Z,16.60
2018-12-15T00:46:54.074Z,17.10
2018-12-15T00:47:26.950Z,14.20
2018-12-15T00:47:59.522Z,17.07
2018-12-15T00:48:32.339Z,17.87
2018-12-15T00:49:04.942Z,16.17
2018-12-15T00:49:37.529Z,14.93
2018-12-15T00:50:10.170Z,16.07
2018-12-15T00:50:42.747Z,17.30
2018-12-15T00:51:15.569Z,14.95
2018-12-15T00:51:48.257Z,18.37
2018-12-15T00:52:20.857Z,14.23
2018-12-15T00:52:53.424Z,15.78
2018-12-15T00:53:26.016Z,14.80
2018-12-15T00:53:58.618Z,16.70
2018-12-15T00:54:31.215Z,14.95
2018-12-15T00:55:04.310Z,15.40
2018-12-15T00:55:36.891Z,12.90
2018-12-15T00:56:09.505Z,14.68
2018-12-15T00:56:42.118Z,13.58
2018-12-15T00:57:14.839Z,17.15
2018-12-15T00:57:47.444Z,16.35
2018-12-15T00:58:20.043Z,13.68
2018-12-15T00:58:52.601Z,14.95
2018-12-15T00:59:25.186Z,14.00
2018-12-15T00:59:57.783Z,15.63
2018-12-15T01:00:30.410Z,16.07
2018-12-15T01:01:03.030Z,15.28
2018-12-15T01:01:35.640Z,14.85
2018-12-15T01:02:08.228Z,17.50
2018-12-15T01:02:40.793Z,14.73
2018-12-15T01:03:13.360Z,12.75
2018-12-15T01:03:45.955Z,15.60
2018-12-15T01:04:18.587Z,14.28
2018-12-15T01:04:51.196Z,15.90
2018-12-15T01:05:23.802Z,19.52
2018-12-15T01:05:56.435Z,14.43
2018-12-15T01:06:29.027Z,14.28
2018-12-15T01:07:01.603Z,15.78
2018-12-15T01:07:35.241Z,15.45
2018-12-15T01:08:08.374Z,15.58
2018-12-15T01:08:41.064Z,15.15
2018-12-15T01:09:13.745Z,19.10
2018-12-15T01:09:46.460Z,17.57
2018-12-15T01:10:19.102Z,14.30
2018-12-15T01:10:51.726Z,16.93
2018-12-15T01:11:24.351Z,14.90
2018-12-15T01:11:57.065Z,15.80
2018-12-15T01:12:29.635Z,18.00
2018-12-15T01:13:02.216Z,16.80
2018-12-15T01:13:34.815Z,15.70
2018-12-15T01:14:07.402Z,13.90
2018-12-15T01:14:39.987Z,15.03
2018-12-15T01:15:12.693Z,16.02
2018-12-15T01:15:45.299Z,17.73
2018-12-15T01:16:17.922Z,16.95
2018-12-15T01:16:50.540Z,21.17
2018-12-15T01:17:23.117Z,15.68
2018-12-15T01:17:55.754Z,15.43
2018-12-15T01:18:28.320Z,16.55
2018-12-15T01:19:00.904Z,17.82
2018-12-15T01:19:33.465Z,18.62
2018-12-15T01:20:06.334Z,17.50
2018-12-15T01:20:38.917Z,17.60
2018-12-15T01:21:11.510Z,20.95
2018-12-15T01:21:44.104Z,18.02
2018-12-15T01:22:16.739Z,18.15
2018-12-15T01:22:49.320Z,22.27
2018-12-15T01:23:21.920Z,19.62
2018-12-15T01:23:54.495Z,18.35
2018-12-15T01:24:27.095Z,15.85
2018-12-15T01:24:59.661Z,19.05
2018-12-15T01:25:32.260Z,24.67
2018-12-15T01:26:04.854Z,17.12
2018-12-15T01:26:37.441Z,16.52
2018-12-15T01:27:10.018Z,18.23
2018-12-15T01:27:42.652Z,17.10
2018-12-15T01:28:15.255Z,19.52
2018-12-15T01:28:47.847Z,20.37
2018-12-15T01:29:20.408Z,14.23
2018-12-15T01:29:52.991Z,18.52
2018-12-15T01:30:25.573Z,22.87
2018-12-15T01:30:58.132Z,18.65
2018-12-15T01:31:30.735Z,21.15
2018-12-15T01:32:03.362Z,17.90
2018-12-15T01:32:35.957Z,17.92
2018-12-15T01:33:08.584Z,16.42
2018-12-15T01:33:41.191Z,19.00
2018-12-15T01:34:13.766Z,17.60
2018-12-15T01:34:46.337Z,17.50
2018-12-15T01:35:18.925Z,19.67
2018-12-15T01:35:51.505Z,20.10
2018-12-15T01:36:24.148Z,18.62
2018-12-15T01:36:56.825Z,16.62
2018-12-15T01:37:29.432Z,18.85
2018-12-15T01:38:02.044Z,17.55
2018-12-15T01:38:34.651Z,19.00
2018-12-15T01:39:08.263Z,20.00
2018-12-15T01:39:40.821Z,18.48
2018-12-15T01:40:13.698Z,18.12
2018-12-15T01:40:46.290Z,20.37
2018-12-15T01:41:18.888Z,19.02
2018-12-15T01:41:51.498Z,19.37
2018-12-15T01:42:24.083Z,20.52
2018-12-15T01:42:56.664Z,17.07
2018-12-15T01:43:29.270Z,19.67
2018-12-15T01:44:01.869Z,20.62
2018-12-15T01:44:34.453Z,20.15
2018-12-15T01:45:07.292Z,20.30
2018-12-15T01:45:39.870Z,18.92
2018-12-15T01:46:12.457Z,19.25
2018-12-15T01:46:45.235Z,16.32
2018-12-15T01:47:17.830Z,19.20
2018-12-15T01:47:50.405Z,20.48
2018-12-15T01:48:23.019Z,22.77
2018-12-15T01:48:55.623Z,20.43
2018-12-15T01:49:28.263Z,20.15
2018-12-15T01:50:00.862Z,20.25
2018-12-15T01:50:33.442Z,17.35
2018-12-15T01:51:06.043Z,19.27
2018-12-15T01:51:38.617Z,25.12
2018-12-15T01:52:11.192Z,18.87
2018-12-15T01:52:43.770Z,18.00
2018-12-15T01:53:16.360Z,18.25
2018-12-15T01:53:48.948Z,18.77
2018-12-15T01:54:21.566Z,16.25
2018-12-15T01:54:54.196Z,17.87
2018-12-15T01:55:26.795Z,17.50
2018-12-15T01:55:59.365Z,18.70
2018-12-15T01:56:32.007Z,16.35
2018-12-15T01:57:04.601Z,16.23
2018-12-15T01:57:37.185Z,17.30
2018-12-15T01:58:09.779Z,22.35
2018-12-15T01:58:42.499Z,18.52
2018-12-15T01:59:15.136Z,19.87
2018-12-15T01:59:47.705Z,17.60
2018-12-15T02:00:20.675Z,21.15
2018-12-15T02:00:53.285Z,22.67
2018-12-15T02:01:25.848Z,19.73
2018-12-15T02:01:58.446Z,18.67
2018-12-15T02:02:31.046Z,19.77
2018-12-15T02:03:03.625Z,19.80
2018-12-15T02:03:36.324Z,19.32
2018-12-15T02:04:08.903Z,20.05
2018-12-15T02:04:41.482Z,20.55
2018-12-15T02:05:14.091Z,16.70
2018-12-15T02:05:46.728Z,19.05
2018-12-15T02:06:19.304Z,17.98
2018-12-15T02:06:51.913Z,17.45
2018-12-15T02:07:24.506Z,17.60
2018-12-15T02:07:57.123Z,16.87
2018-12-15T02:08:29.712Z,17.52
2018-12-15T02:09:02.483Z,21.55
2018-12-15T02:09:35.117Z,19.48
2018-12-15T02:10:09.220Z,17.92
2018-12-15T02:10:41.794Z,22.17
2018-12-15T02:11:14.470Z,20.25
2018-12-15T02:11:47.154Z,19.15
2018-12-15T02:12:19.767Z,16.30
2018-12-15T02:12:52.352Z,18.15
2018-12-15T02:13:24.963Z,17.12
2018-12-15T02:13:57.556Z,17.77
2018-12-15T02:14:30.161Z,18.17
2018-12-15T02:15:03.005Z,16.15
2018-12-15T02:15:35.596Z,16.27
2018-12-15T02:16:08.169Z,19.77
2018-12-15T02:16:40.785Z,20.60
2018-12-15T02:17:13.358Z,18.27
2018-12-15T02:17:45.946Z,18.55
2018-12-15T02:18:18.528Z,17.95
2018-12-15T02:18:51.093Z,17.20
2018-12-15T02:19:23.812Z,17.65
2018-12-15T02:19:56.384Z,18.15
2018-12-15T02:20:28.982Z,15.70
2018-12-15T02:21:01.575Z,17.82
2018-12-15T02:21:34.290Z,19.75
2018-12-15T02:22:06.917Z,17.07
2018-12-15T02:22:39.513Z,19.50
2018-12-15T02:23:12.085Z,18.02
2018-12-15T02:23:44.663Z,16.10
2018-12-15T02:24:17.262Z,18.45
2018-12-15T02:24:49.848Z,19.15
2018-12-15T02:25:22.428Z,17.65
2018-12-15T02:25:55.006Z,19.65
2018-12-15T02:26:27.577Z,17.73
2018-12-15T02:27:00.161Z,16.77
2018-12-15T02:27:32.756Z,18.52
2018-12-15T02:28:05.325Z,16.40
2018-12-15T02:28:37.905Z,19.73
2018-12-15T02:29:12.629Z,17.60
2018-12-15T02:29:45.238Z,17.65
2018-12-15T02:30:17.847Z,18.05
2018-12-15T02:30:50.456Z,20.32
2018-12-15T02:31:23.935Z,18.65
2018-12-15T02:31:56.583Z,16.45
2018-12-15T02:32:29.163Z,17.85
2018-12-15T02:33:01.774Z,17.30
2018-12-15T02:33:34.349Z,21.65
2018-12-15T02:34:06.950Z,20.60
2018-12-15T02:34:39.548Z,14.25
2018-12-15T02:35:12.139Z,18.17
2018-12-15T02:35:44.733Z,16.85
2018-12-15T02:36:17.567Z,19.02
2018-12-15T02:36:50.153Z,19.85
2018-12-15T02:37:22.735Z,16.05
2018-12-15T02:37:55.316Z,18.10
2018-12-15T02:38:27.934Z,16.85
2018-12-15T02:39:00.502Z,19.67
2018-12-15T02:39:33.233Z,19.17
2018-12-15T02:40:06.778Z,20.10
2018-12-15T02:40:39.352Z,22.52
2018-12-15T02:41:11.925Z,18.52
2018-12-15T02:41:47.333Z,21.48
2018-12-15T02:42:19.163Z,18.02
2018-12-15T02:42:51.725Z,20.27
2018-12-15T02:43:24.300Z,16.97
2018-12-15T02:43:56.920Z,23.55
2018-12-15T02:44:29.536Z,18.48
2018-12-15T02:45:02.241Z,21.77
2018-12-15T02:45:34.841Z,22.42
2018-12-15T02:46:07.435Z,17.57
2018-12-15T02:46:40.097Z,19.20
2018-12-15T02:47:12.663Z,18.17
2018-12-15T02:47:45.220Z,19.87
2018-12-15T02:48:17.794Z,19.10
2018-12-15T02:48:50.385Z,19.82
2018-12-15T02:49:23.008Z,19.35
2018-12-15T02:49:55.599Z,24.52
2018-12-15T02:50:28.190Z,21.12
2018-12-15T02:51:00.789Z,22.62
2018-12-15T02:51:33.381Z,22.00
2018-12-15T02:52:05.978Z,20.77
2018-12-15T02:52:38.576Z,19.60
2018-12-15T02:53:11.169Z,20.62
2018-12-15T02:53:43.756Z,21.57
2018-12-15T02:54:16.340Z,21.90
2018-12-15T02:54:48.958Z,20.92
2018-12-15T02:55:21.540Z,20.23
2018-12-15T02:55:54.122Z,23.45
2018-12-15T02:56:26.729Z,22.37
2018-12-15T02:56:59.396Z,19.57
2018-12-15T02:57:31.985Z,20.10
2018-12-15T02:58:04.588Z,24.20
2018-12-15T02:58:37.201Z,19.50
2018-12-15T02:59:09.795Z,26.62
2018-12-15T02:59:42.391Z,20.95
2018-12-15T03:00:15.029Z,22.55
2018-12-15T03:00:47.631Z,22.07
2018-12-15T03:01:20.235Z,20.02
2018-12-15T03:01:52.820Z,20.72
2018-12-15T03:02:25.409Z,23.12
2018-12-15T03:02:58.034Z,22.45
2018-12-15T03:03:30.625Z,19.50
2018-12-15T03:04:03.342Z,21.23
2018-12-15T03:04:35.927Z,21.70
2018-12-15T03:05:08.545Z,24.18
2018-12-15T03:05:41.147Z,19.98
2018-12-15T03:06:13.718Z,22.62
2018-12-15T03:06:46.311Z,23.00
2018-12-15T03:07:18.897Z,24.95
2018-12-15T03:07:51.500Z,21.20
2018-12-15T03:08:24.135Z,29.82
2018-12-15T03:08:56.855Z,21.37
2018-12-15T03:09:29.454Z,22.82
2018-12-15T03:10:02.094Z,22.25
2018-12-15T03:10:34.716Z,21.95
2018-12-15T03:11:07.316Z,22.67
2018-12-15T03:11:39.894Z,20.80
2018-12-15T03:12:12.513Z,29.90
2018-12-15T03:12:45.107Z,22.07
2018-12-15T03:13:17.686Z,24.47
2018-12-15T03:13:50.264Z,27.93
2018-12-15T03:14:22.859Z,22.10
2018-12-15T03:14:55.454Z,20.97
2018-12-15T03:15:28.069Z,21.00
2018-12-15T03:16:00.656Z,24.50
2018-12-15T03:16:33.293Z,22.45
2018-12-15T03:17:06.537Z,19.60
2018-12-15T03:17:39.129Z,24.60
2018-12-15T03:18:11.718Z,20.27
2018-12-15T03:18:44.323Z,24.37
2018-12-15T03:19:16.918Z,22.27
2018-12-15T03:19:49.504Z,23.55
2018-12-15T03:20:22.111Z,22.05
2018-12-15T03:21:00.820Z,25.32
2018-12-15T03:21:33.439Z,25.72
2018-12-15T03:22:06.158Z,20.37
2018-12-15T03:22:38.762Z,19.60
2018-12-15T03:23:11.341Z,23.70
2018-12-15T03:23:43.937Z,22.90
2018-12-15T03:24:16.555Z,24.18
2018-12-15T03:24:49.164Z,22.00
2018-12-15T03:25:21.755Z,21.82
2018-12-15T03:25:54.371Z,20.60
2018-12-15T03:26:26.963Z,21.02
2018-12-15T03:26:59.731Z,22.95
2018-12-15T03:27:32.335Z,22.85
2018-12-15T03:28:04.917Z,23.80
2018-12-15T03:28:37.522Z,22.62
2018-12-15T03:29:10.141Z,26.90
2018-12-15T03:29:42.719Z,24.00
2018-12-15T03:30:15.317Z,19.75
2018-12-15T03:30:47.924Z,22.77
2018-12-15T03:31:20.628Z,25.43
2018-12-15T03:31:53.247Z,26.23
2018-12-15T03:32:25.855Z,22.40
2018-12-15T03:32:58.436Z,24.92
2018-12-15T03:33:31.018Z,23.67
2018-12-15T03:34:03.649Z,22.55
2018-12-15T03:34:36.229Z,25.52
2018-12-15T03:35:08.942Z,23.20
2018-12-15T03:35:41.511Z,22.82
2018-12-15T03:36:14.120Z,29.37
2018-12-15T03:36:46.740Z,25.50
2018-12-15T03:37:19.359Z,23.10
2018-12-15T03:37:52.089Z,22.42
2018-12-15T03:38:24.674Z,26.65
2018-12-15T03:38:57.290Z,23.83
2018-12-15T03:39:29.897Z,23.85
2018-12-15T03:40:03.032Z,22.85
2018-12-15T03:40:35.842Z,21.95
2018-12-15T03:41:08.415Z,25.15
2018-12-15T03:41:40.999Z,26.02
2018-12-15T03:42:13.598Z,25.70
2018-12-15T03:42:46.187Z,26.02
2018-12-15T03:43:18.794Z,25.95
2018-12-15T03:43:51.352Z,20.95
2018-12-15T03:44:23.941Z,24.57
2018-12-15T03:44:56.527Z,22.52
2018-12-15T03:45:29.089Z,26.30
2018-12-15T03:46:01.696Z,26.95
2018-12-15T03:46:34.288Z,29.95
2018-12-15T03:47:06.923Z,27.15
2018-12-15T03:47:39.517Z,26.90
2018-12-15T03:48:12.105Z,29.48
2018-12-15T03:48:44.703Z,29.23
2018-12-15T03:49:17.281Z,23.75
2018-12-15T03:49:49.873Z,24.67
2018-12-15T03:50:22.464Z,26.33
2018-12-15T03:50:55.041Z,20.52
2018-12-15T03:51:27.623Z,23.52
2018-12-15T03:52:00.592Z,24.45
2018-12-15T03:52:33.329Z,23.55
2018-12-15T03:53:05.903Z,24.72
2018-12-15T03:53:38.528Z,21.12
2018-12-15T03:54:11.169Z,26.52
2018-12-15T03:54:43.768Z,24.70
2018-12-15T03:55:16.333Z,28.40
2018-12-15T03:55:50.942Z,22.35
2018-12-15T03:56:23.701Z,24.15
2018-12-15T03:56:56.289Z,26.23
2018-12-15T03:57:28.913Z,28.25
2018-12-15T03:58:01.492Z,24.82
2018-12-15T03:58:34.099Z,20.85
2018-12-15T03:59:06.702Z,26.05
2018-12-15T03:59:39.503Z,22.62
2018-12-15T04:00:12.128Z,22.48
2018-12-15T04:00:44.723Z,24.80
2018-12-15T04:01:17.299Z,23.42
2018-12-15T04:01:50.011Z,23.87
2018-12-15T04:02:22.624Z,24.57
2018-12-15T04:02:55.203Z,22.80
2018-12-15T04:03:27.787Z,21.02
2018-12-15T04:04:00.396Z,25.52
2018-12-15T04:04:33.133Z,26.20
2018-12-15T04:05:05.873Z,27.22
2018-12-15T04:05:38.539Z,24.60
2018-12-15T04:06:11.138Z,27.77
2018-12-15T04:06:43.735Z,27.95
2018-12-15T04:07:16.312Z,25.02
2018-12-15T04:07:48.915Z,20.17
2018-12-15T04:08:21.524Z,24.10
2018-12-15T04:08:54.123Z,22.30
2018-12-15T04:09:26.741Z,23.62
2018-12-15T04:09:59.334Z,25.90
2018-12-15T04:10:31.957Z,22.80
2018-12-15T04:11:04.546Z,23.95
2018-12-15T04:11:37.137Z,25.60
2018-12-15T04:12:09.710Z,24.60
2018-12-15T04:12:42.285Z,23.87
2018-12-15T04:13:14.857Z,23.62
2018-12-15T04:13:47.479Z,21.05
2018-12-15T04:14:20.125Z,20.62
2018-12-15T04:14:52.813Z,22.48
2018-12-15T04:15:25.438Z,23.98
2018-12-15T04:15:58.054Z,24.37
2018-12-15T04:16:30.658Z,23.62
2018-12-15T04:17:03.229Z,21.57
2018-12-15T04:17:35.797Z,25.17
2018-12-15T04:18:08.422Z,23.00
2018-12-15T04:18:41.008Z,19.55
2018-12-15T04:19:13.596Z,32.08
2018-12-15T04:19:46.186Z,21.05
2018-12-15T04:20:18.761Z,23.20
2018-12-15T04:20:51.355Z,23.05
2018-12-15T04:21:23.981Z,24.87
2018-12-15T04:22:27.705Z,21.97
2018-12-15T04:23:00.389Z,23.45
2018-12-15T04:23:32.961Z,21.42
2018-12-15T04:24:05.545Z,21.30
2018-12-15T04:24:38.141Z,24.25
2018-12-15T04:25:10.745Z,26.75
2018-12-15T04:25:43.343Z,22.52
2018-12-15T04:26:15.937Z,25.68
2018-12-15T04:26:48.559Z,25.52
2018-12-15T04:27:21.136Z,24.00
2018-12-15T04:27:53.712Z,21.05
2018-12-15T04:28:26.318Z,24.25
2018-12-15T04:28:58.932Z,23.05
2018-12-15T04:29:31.508Z,27.05
2018-12-15T04:30:05.703Z,23.12
2018-12-15T04:30:38.305Z,21.23
2018-12-15T04:31:10.873Z,23.95
2018-12-15T04:31:43.477Z,24.27
2018-12-15T04:32:16.092Z,26.05
2018-12-15T04:32:48.699Z,21.07
2018-12-15T04:33:21.309Z,21.95
2018-12-15T04:33:53.909Z,21.95
2018-12-15T04:34:26.498Z,22.32
2018-12-15T04:34:59.073Z,21.20
2018-12-15T04:35:31.647Z,24.60
2018-12-15T04:36:13.699Z,26.12
2018-12-15T04:36:46.290Z,19.10
2018-12-15T04:37:18.902Z,29.25
2018-12-15T04:37:51.481Z,24.37
2018-12-15T04:38:24.076Z,23.52
2018-12-15T04:38:56.694Z,22.00
2018-12-15T04:39:29.279Z,20.25
2018-12-15T04:40:01.861Z,26.75
2018-12-15T04:40:34.573Z,23.18
2018-12-15T04:41:07.157Z,26.17
2018-12-15T04:41:39.723Z,22.60
2018-12-15T04:42:12.331Z,32.03
2018-12-15T04:42:44.939Z,22.80
2018-12-15T04:43:17.522Z,34.83
2018-12-15T04:43:50.241Z,25.37
2018-12-15T04:44:22.821Z,22.90
2018-12-15T04:44:55.390Z,25.75
2018-12-15T04:45:27.975Z,22.82
2018-12-15T04:46:00.554Z,22.75
2018-12-15T04:46:33.168Z,27.77
2018-12-15T04:47:05.893Z,25.65
2018-12-15T04:47:38.484Z,25.70
2018-12-15T04:48:11.552Z,22.48
2018-12-15T04:48:44.259Z,22.15
2018-12-15T04:49:16.867Z,25.15
2018-12-15T04:49:49.447Z,23.62
2018-12-15T04:50:22.029Z,24.65
2018-12-15T04:50:54.614Z,28.12
2018-12-15T04:51:27.210Z,24.43
2018-12-15T04:51:59.802Z,24.85
2018-12-15T04:52:32.396Z,22.55
2018-12-15T04:53:05.002Z,24.57
2018-12-15T04:53:37.625Z,23.18
2018-12-15T04:54:10.216Z,23.00
2018-12-15T04:54:42.813Z,25.12
2018-12-15T04:55:15.415Z,26.82
2018-12-15T04:55:48.005Z,26.65
2018-12-15T04:56:20.573Z,26.10
2018-12-15T04:56:53.138Z,27.07
2018-12-15T04:57:25.708Z,22.25
2018-12-15T04:57:58.341Z,25.17
2018-12-15T04:58:30.900Z,26.87
2018-12-15T04:59:03.536Z,27.67
2018-12-15T04:59:36.142Z,25.65
2018-12-15T05:00:08.851Z,24.20
2018-12-15T05:00:41.460Z,28.25
2018-12-15T05:01:14.019Z,23.73
2018-12-15T05:01:46.611Z,28.50
2018-12-15T05:02:19.180Z,27.95
2018-12-15T05:02:51.751Z,25.35
2018-12-15T05:03:24.357Z,27.05
2018-12-15T05:03:56.968Z,22.60
2018-12-15T05:04:29.586Z,24.92
2018-12-15T05:05:02.152Z,27.52
2018-12-15T05:05:34.914Z,25.35
2018-12-15T05:06:07.514Z,25.17
2018-12-15T05:06:40.136Z,28.38
2018-12-15T05:07:12.728Z,27.25
2018-12-15T05:07:45.308Z,24.47
2018-12-15T05:08:17.896Z,27.73
2018-12-15T05:08:50.496Z,28.80
2018-12-15T05:09:23.079Z,25.55
2018-12-15T05:09:55.692Z,30.68
2018-12-15T05:10:28.302Z,21.87
2018-12-15T05:11:00.920Z,25.82
2018-12-15T05:11:33.519Z,25.55
2018-12-15T05:12:06.113Z,24.67
2018-12-15T05:12:38.721Z,25.95
2018-12-15T05:13:11.310Z,28.10
2018-12-15T05:13:43.895Z,22.65
2018-12-15T05:14:16.464Z,24.45
2018-12-15T05:14:49.042Z,21.40
2018-12-15T05:15:21.696Z,27.40
2018-12-15T05:15:54.298Z,26.20
2018-12-15T05:16:26.916Z,22.87
2018-12-15T05:16:59.510Z,24.15
2018-12-15T05:17:32.118Z,26.10
2018-12-15T05:18:04.734Z,26.05
2018-12-15T05:18:37.322Z,26.20
2018-12-15T05:19:09.953Z,26.62
2018-12-15T05:19:42.528Z,27.77
2018-12-15T05:20:15.110Z,23.18
2018-12-15T05:20:47.731Z,25.45
2018-12-15T05:21:20.289Z,24.27
2018-12-15T05:21:52.871Z,27.10
2018-12-15T05:22:25.478Z,32.45
2018-12-15T05:22:58.085Z,26.73
2018-12-15T05:23:30.691Z,24.45
2018-12-15T05:24:03.317Z,23.98
2018-12-15T05:24:35.885Z,24.30
2018-12-15T05:25:08.615Z,25.23
2018-12-15T05:25:41.177Z,25.25
2018-12-15T05:26:13.797Z,27.20
2018-12-15T05:26:46.407Z,25.88
2018-12-15T05:27:19.116Z,23.77
2018-12-15T05:27:51.694Z,25.55
2018-12-15T05:28:25.329Z,23.87
2018-12-15T05:28:57.918Z,25.12
2018-12-15T05:29:30.488Z,22.00
2018-12-15T05:30:03.625Z,25.25
2018-12-15T05:30:36.226Z,28.12
2018-12-15T05:31:08.803Z,22.82
2018-12-15T05:31:41.434Z,29.10
2018-12-15T05:32:14.024Z,24.75
2018-12-15T05:32:46.716Z,28.90
2018-12-15T05:33:19.306Z,25.27
2018-12-15T05:33:51.878Z,25.57
2018-12-15T05:34:24.488Z,24.18
2018-12-15T05:34:57.106Z,25.12
2018-12-15T05:35:29.693Z,24.75
2018-12-15T05:36:02.317Z,25.40
2018-12-15T05:36:34.956Z,26.02
2018-12-15T05:37:07.573Z,25.27
2018-12-15T05:37:40.180Z,25.62
2018-12-15T05:38:12.757Z,25.75
2018-12-15T05:38:45.356Z,23.55
2018-12-15T05:39:17.961Z,27.42
2018-12-15T05:39:50.561Z,28.15
2018-12-15T05:40:23.155Z,25.48
2018-12-15T05:40:55.754Z,26.45
2018-12-15T05:41:28.336Z,26.30
2018-12-15T05:42:00.908Z,29.35
2018-12-15T05:42:33.546Z,25.23
2018-12-15T05:43:06.147Z,26.85
2018-12-15T05:43:38.744Z,25.52
2018-12-15T05:44:11.332Z,28.47
2018-12-15T05:44:43.909Z,28.15
2018-12-15T05:45:16.507Z,27.10
2018-12-15T05:45:49.107Z,25.62
2018-12-15T05:46:21.701Z,28.90
2018-12-15T05:46:54.307Z,35.05
2018-12-15T05:47:26.890Z,25.45
2018-12-15T05:47:59.519Z,23.42
2018-12-15T05:48:32.486Z,27.85
2018-12-15T05:49:05.099Z,26.42
2018-12-15T05:49:37.656Z,31.52
2018-12-15T05:50:10.262Z,25.10
2018-12-15T05:50:42.840Z,24.15
2018-12-15T05:51:15.436Z,28.07
2018-12-15T05:51:48.008Z,27.25
2018-12-15T05:52:21.182Z,28.30
2018-12-15T05:52:53.804Z,23.38
2018-12-15T05:53:26.399Z,27.93
2018-12-15T05:53:58.991Z,28.92
2018-12-15T05:54:31.568Z,24.90
2018-12-15T05:55:04.300Z,28.83
2018-12-15T05:55:36.914Z,29.95
2018-12-15T05:56:09.503Z,26.27
2018-12-15T05:56:42.099Z,27.22
2018-12-15T05:57:14.714Z,25.95
2018-12-15T05:57:47.294Z,29.35
2018-12-15T05:58:19.923Z,24.82
2018-12-15T05:58:52.536Z,24.75
2018-12-15T05:59:25.115Z,26.55
2018-12-15T05:59:57.692Z,28.10
2018-12-15T06:00:30.282Z,30.02
2018-12-15T06:01:02.841Z,26.42
2018-12-15T06:01:35.500Z,24.92
2018-12-15T06:02:10.578Z,28.02
2018-12-15T06:02:43.282Z,27.45
2018-12-15T06:03:21.848Z,27.15
2018-12-15T06:03:54.545Z,22.45
2018-12-15T06:04:31.109Z,24.57
2018-12-15T06:05:04.570Z,27.67
2018-12-15T06:05:37.286Z,19.17
2018-12-15T06:06:09.866Z,29.42
2018-12-15T06:06:42.452Z,25.15
2018-12-15T06:07:15.480Z,26.02
2018-12-15T06:07:48.469Z,28.30
2018-12-15T06:08:21.061Z,26.23
2018-12-15T06:08:53.672Z,28.25
2018-12-15T06:09:26.321Z,25.32
2018-12-15T06:09:58.960Z,25.88
2018-12-15T06:10:31.822Z,27.35
2018-12-15T06:11:04.399Z,30.37
2018-12-15T06:11:36.989Z,32.90
2018-12-15T06:12:09.595Z,30.17
2018-12-15T06:12:42.537Z,25.82
2018-12-15T06:13:15.272Z,27.90
2018-12-15T06:13:47.836Z,30.25
2018-12-15T06:14:20.422Z,24.72
2018-12-15T06:14:53.018Z,26.23
2018-12-15T06:15:25.622Z,30.02
2018-12-15T06:15:58.205Z,27.85
2018-12-15T06:16:30.826Z,25.95
2018-12-15T06:17:03.836Z,26.97
2018-12-15T06:17:36.428Z,30.40
2018-12-15T06:18:09.680Z,25.77
2018-12-15T06:18:42.843Z,26.55
2018-12-15T06:19:16.582Z,29.32
2018-12-15T06:19:56.510Z,24.57
2018-12-15T06:20:29.578Z,24.45
2018-12-15T06:21:02.424Z,28.62
2018-12-15T06:21:35.497Z,24.15
2018-12-15T06:22:08.354Z,28.60
2018-12-15T06:22:41.709Z,24.82
2018-12-15T06:23:14.926Z,24.90
2018-12-15T06:23:48.589Z,27.22
2018-12-15T06:24:21.579Z,24.30
2018-12-15T06:24:54.175Z,27.58
2018-12-15T06:25:26.788Z,26.27
2018-12-15T06:25:59.377Z,28.15
2018-12-15T06:26:31.972Z,29.25
2018-12-15T06:27:04.575Z,25.82
2018-12-15T06:27:37.167Z,27.22
2018-12-15T06:28:09.746Z,28.10
2018-12-15T06:28:42.351Z,26.25
2018-12-15T06:29:14.921Z,21.05
2018-12-15T06:29:47.495Z,26.15
2018-12-15T06:30:20.085Z,28.83
2018-12-15T06:30:52.684Z,28.27
2018-12-15T06:31:25.290Z,27.45
2018-12-15T06:31:57.885Z,24.60
2018-12-15T06:32:30.471Z,23.50
2018-12-15T06:33:03.059Z,31.15
2018-12-15T06:33:35.644Z,27.37
2018-12-15T06:34:08.244Z,25.65
2018-12-15T06:34:40.837Z,28.50
2018-12-15T06:35:13.423Z,31.35
2018-12-15T06:35:46.074Z,28.57
2018-12-15T06:36:18.762Z,26.68
2018-12-15T06:36:51.346Z,30.08
2018-12-15T06:37:23.940Z,30.15
2018-12-15T06:37:56.910Z,26.02
2018-12-15T06:38:30.378Z,28.75
2018-12-15T06:39:05.994Z,38.63
2018-12-15T06:39:39.162Z,26.07
2018-12-15T06:40:12.249Z,27.55
2018-12-15T06:40:45.908Z,26.77
2018-12-15T06:41:20.636Z,31.65
2018-12-15T06:41:53.729Z,25.43
2018-12-15T06:42:27.779Z,26.85
2018-12-15T06:43:00.693Z,26.73
2018-12-15T06:43:34.491Z,31.10
2018-12-15T06:44:07.530Z,21.42
2018-12-15T06:44:40.257Z,24.43
2018-12-15T06:45:12.896Z,25.75
2018-12-15T06:45:45.829Z,26.73
2018-12-15T06:46:18.413Z,26.27
2018-12-15T06:46:51.026Z,28.42
2018-12-15T06:47:23.630Z,29.85
2018-12-15T06:47:56.211Z,23.92
2018-12-15T06:48:28.831Z,28.20
2018-12-15T06:49:01.434Z,26.97
2018-12-15T06:49:34.125Z,28.27
2018-12-15T06:50:06.851Z,28.67
2018-12-15T06:50:39.433Z,25.10
2018-12-15T06:51:12.037Z,27.48
2018-12-15T06:51:44.615Z,28.32
2018-12-15T06:52:17.234Z,26.40
2018-12-15T06:52:49.811Z,24.92
2018-12-15T06:53:22.441Z,25.05
2018-12-15T06:53:55.059Z,28.23
2018-12-15T06:54:27.666Z,24.65
2018-12-15T06:55:00.245Z,28.62
2018-12-15T06:55:32.828Z,27.55
2018-12-15T06:56:05.404Z,29.18
2018-12-15T06:56:38.001Z,24.25
2018-12-15T06:57:10.615Z,27.27
2018-12-15T06:57:43.263Z,27.25
2018-12-15T06:58:15.869Z,25.82
2018-12-15T06:58:48.514Z,32.45
2018-12-15T06:59:21.101Z,27.40
2018-12-15T06:59:53.686Z,27.70
2018-12-15T07:00:26.281Z,28.32
2018-12-15T07:00:58.840Z,27.77
2018-12-15T07:01:31.441Z,28.50
2018-12-15T07:02:04.166Z,33.63